Time;durP1;ratioP1;P1;durP2;ratioP2;P2;SDS_P1;SDS_P2;PMS_P1;PMS_P2;Temp;Humidity;BMP_temperature;BMP_pressure;BME280_temperature;BME280_humidity;BME280_pressure;Samples;Min_cycle;Max_cycle;Signal;HPM_P1;HPM_P2
2022/11/16 00:01:48;;;;;;;16.08;12.02;;;;;;;10.68;100.00;67951.69;4997029;28;20400;-81
2022/11/16 00:04:13;;;;;;;15.02;11.60;;;;;;;10.67;100.00;67953.22;4997008;28;20097;-80
2022/11/16 00:06:39;;;;;;;16.08;12.27;;;;;;;10.69;100.00;67955.50;5000962;28;20052;-81
2022/11/16 00:09:25;;;;;;;17.92;12.45;;;;;;;10.69;100.00;67955.50;4999171;28;20058;-81
2022/11/16 00:12:03;;;;;;;15.52;11.45;;;;;;;10.65;100.00;67956.28;4999206;28;20034;-81
2022/11/16 00:14:32;;;;;;;17.38;12.65;;;;;;;10.67;100.00;67953.78;4997491;28;20045;-81
2022/11/16 00:16:58;;;;;;;;;;;;;;;10.65;100.00;67956.84;4999889;28;20046;-80
2022/11/16 00:19:24;;;;;;;14.48;10.95;;;;;;;10.56;100.00;67947.19;4996878;28;19940;-79
2022/11/16 00:21:50;;;;;;;15.18;11.63;;;;;;;10.57;100.00;67948.31;4997567;28;20043;-80
2022/11/16 00:24:17;;;;;;;15.82;12.50;;;;;;;10.62;100.00;67953.44;4999178;28;20049;-81
2022/11/16 00:26:43;;;;;;;16.73;12.15;;;;;;;;;;4997040;28;20038;-80
2022/11/16 00:29:19;;;;;;;18.92;12.35;;;;;;;10.64;100.00;67955.13;4999890;28;20069;-81
2022/11/16 00:31:46;;;;;;;17.58;12.90;;;;;;;10.65;100.00;67956.28;4999477;28;20077;-80
2022/11/16 00:34:11;;;;;;;17.23;12.90;;;;;;;10.64;100.00;67949.81;4989152;28;20258;-80
2022/11/16 00:36:37;;;;;;;19.38;14.43;;;;;;;;;;4997041;28;20603;-80
2022/11/16 00:39:03;;;;;;;20.23;15.07;;;;;;;10.61;100.00;67944.88;4993787;28;20046;-78
2022/11/16 00:41:28;;;;;;;20.83;15.85;;;;;;;10.61;100.00;67952.28;4994403;28;20042;-79
2022/11/16 00:43:53;;;;;;;17.23;13.05;;;;;;;;;;4996476;28;20332;-80
2022/11/16 00:46:19;;;;;;;18.65;14.80;;;;;;;10.58;100.00;67949.47;4994777;28;20050;-78
2022/11/16 00:48:45;;;;;;;17.83;13.60;;;;;;;10.54;100.00;67944.94;4996092;28;20114;-83
2022/11/16 00:51:10;;;;;;;17.80;13.18;;;;;;;10.54;100.00;67939.03;4997462;28;20119;-80
2022/11/16 00:53:36;;;;;;;20.15;13.98;;;;;;;10.53;100.00;67937.91;4999457;28;20383;-80
2022/11/16 00:56:02;;;;;;;18.23;14.32;;;;;;;10.52;100.00;67936.75;4999966;28;20042;-81
2022/11/16 00:58:27;;;;;;;20.80;14.60;;;;;;;10.53;100.00;67938.47;4991678;28;20313;-80
2022/11/16 01:00:52;;;;;;;19.38;14.50;;;;;;;10.51;100.00;67941.53;5003354;28;20077;-82
2022/11/16 01:03:18;;;;;;;19.60;13.82;;;;;;;;;;4999511;28;20493;-80
2022/11/16 01:05:43;;;;;;;19.45;14.25;;;;;;;;;;4990118;28;20039;-78
2022/11/16 01:08:08;;;;;;;22.55;16.40;;;;;;;10.51;100.00;67941.53;5003396;28;20038;-79
2022/11/16 01:10:36;;;;;;;17.58;14.88;;;;;;;;;;5004535;28;20049;-79
2022/11/16 01:13:02;;;;;;;19.58;15.32;;;;;;;10.48;100.00;67929.56;4989392;28;20121;-79
2022/11/16 01:15:27;;;;;;;17.70;12.80;;;;;;;;;;4990784;28;20121;-79
2022/11/16 01:17:55;;;;;;;18.63;15.30;;;;;;;10.47;100.00;67931.09;4989945;28;20053;-79
2022/11/16 01:20:24;;;;;;;19.13;15.30;;;;;;;10.46;100.00;67929.97;4989221;28;20465;-79
2022/11/16 01:22:50;;;;;;;21.30;15.35;;;;;;;10.47;100.00;67931.66;4988728;28;20034;-79
2022/11/16 01:25:15;;;;;;;20.58;16.45;;;;;;;10.46;100.00;67935.84;4988915;28;20506;-79
2022/11/16 01:27:41;;;;;;;19.98;15.05;;;;;;;10.45;100.00;67929.41;4990249;28;20121;-79
2022/11/16 01:30:09;;;;;;;20.42;14.60;;;;;;;10.45;100.00;67926.72;4990346;28;20131;-79
2022/11/16 01:32:35;;;;;;;21.45;15.40;;;;;;;;;;5005709;28;20038;-79
2022/11/16 01:35:00;;;;;;;20.67;15.52;;;;;;;10.45;100.00;67926.72;4989400;28;20572;-79
2022/11/16 01:37:26;;;;;;;20.63;14.95;;;;;;;10.44;100.00;67927.69;5002441;28;20034;-79
2022/11/16 01:39:51;;;;;;;22.83;14.55;;;;;;;;;;4990516;28;20050;-79
2022/11/16 01:42:19;;;;;;;18.98;15.43;;;;;;;10.43;100.00;67927.13;4989825;28;20413;-79
2022/11/16 01:44:44;;;;;;;18.60;14.23;;;;;;;10.42;100.00;67926.00;4986796;28;20050;-79
2022/11/16 01:47:13;;;;;;;19.73;14.93;;;;;;;10.43;100.00;67927.13;4985711;28;20038;-79
2022/11/16 01:49:44;;;;;;;20.15;14.10;;;;;;;10.43;100.00;67927.13;4988924;28;20046;-79
2022/11/16 01:52:15;;;;;;;20.40;14.70;;;;;;;10.42;100.00;67925.44;4993359;28;20042;-79
2022/11/16 01:54:42;;;;;;;21.73;16.10;;;;;;;;;;4994481;28;20041;-79
2022/11/16 01:57:12;;;;;;;20.85;15.63;;;;;;;10.42;100.00;67926.00;4993182;28;20564;-79
2022/11/16 01:59:39;;;;;;;22.23;15.85;;;;;;;10.43;100.00;67926.56;4993596;28;20046;-79
2022/11/16 02:02:04;;;;;;;21.30;15.60;;;;;;;10.44;100.00;67925.03;5007418;28;20067;-80
2022/11/16 02:04:30;;;;;;;18.05;13.85;;;;;;;;;;5005357;28;20034;-80
2022/11/16 02:07:05;;;;;;;22.30;15.07;;;;;;;;;;4999653;28;20069;-80
2022/11/16 02:12:26;;;;;;;21.83;15.40;;;;;;;10.45;100.00;67928.84;4995218;28;20048;-80
2022/11/16 02:14:54;;;;;;;19.08;13.77;;;;;;;10.45;100.00;67934.72;4995421;28;20116;-79
2022/11/16 02:17:20;;;;;;;23.30;16.27;;;;;;;;;;4995127;28;20609;-80
2022/11/16 02:19:55;;;;;;;21.17;16.17;;;;;;;;;;4994752;28;20058;-81
2022/11/16 02:23:02;;;;;;;23.27;14.70;;;;;;;10.46;100.00;67935.84;4995378;28;20283;-80
2022/11/16 02:25:35;;;;;;;22.75;15.88;;;;;;;;;;4943483;28;20091;-80
2022/11/16 02:28:16;;;;;;;22.50;15.75;;;;;;;10.44;100.00;67925.59;4989805;28;20115;-80
2022/11/16 02:30:43;;;;;;;21.95;15.82;;;;;;;;;;4995440;28;20104;-80
2022/11/16 02:33:10;;;;;;;23.35;16.70;;;;;;;;;;4993823;28;20045;-80
2022/11/16 02:35:42;;;;;;;25.38;17.35;;;;;;;10.48;100.00;67932.22;4992440;28;20042;-81
2022/11/16 02:38:13;;;;;;;23.77;15.55;;;;;;;10.50;100.00;67934.50;4996926;28;20045;-80
2022/11/16 02:40:45;;;;;;;25.25;17.58;;;;;;;10.50;100.00;67939.81;4994469;28;20663;-80
2022/11/16 02:43:15;;;;;;;26.05;19.05;;;;;;;10.50;100.00;67934.50;4990020;28;20053;-79
2022/11/16 02:45:49;;;;;;;26.92;18.17;;;;;;;10.52;100.00;67937.31;4992785;28;20508;-79
2022/11/16 02:48:21;;;;;;;28.23;17.48;;;;;;;10.51;100.00;67933.53;4993673;28;20042;-80
2022/11/16 02:50:51;;;;;;;25.90;16.80;;;;;;;10.52;100.00;67945.31;4992178;28;20487;-79
2022/11/16 02:53:17;;;;;;;25.38;17.55;;;;;;;10.52;100.00;67937.31;4994173;28;20052;-79
2022/11/16 02:55:42;;;;;;;28.48;19.55;;;;;;;10.53;100.00;67938.47;4992389;28;20042;-79
2022/11/16 02:58:15;;;;;;;26.60;17.48;;;;;;;10.53;100.00;67938.47;4994373;28;20043;-80
2022/11/16 03:00:43;;;;;;;23.52;17.88;;;;;;;;;;4993256;28;20312;-80
2022/11/16 03:03:22;;;;;;;26.67;17.88;;;;;;;10.58;100.00;67949.47;4991225;28;20050;-80
2022/11/16 03:06:17;;;;;;;25.23;17.92;;;;;;;10.54;100.00;67944.94;4990744;28;20124;-80
2022/11/16 03:08:55;;;;;;;26.13;18.02;;;;;;;10.54;100.00;67939.59;4990656;28;20130;-79
2022/11/16 03:14:10;;;;;;;25.10;16.83;;;;;;;10.54;100.00;67939.59;4983019;28;20101;-80
2022/11/16 03:16:50;;;;;;;26.58;19.08;;;;;;;10.52;100.00;67937.31;4993386;28;20065;-80
2022/11/16 03:19:15;;;;;;;;;;;;;;;;;;4988868;28;20514;-79
2022/11/16 03:21:47;;;;;;;28.92;20.10;;;;;;;10.49;100.00;67938.69;5005065;28;20451;-79
2022/11/16 03:24:13;;;;;;;34.40;22.13;;;;;;;10.48;100.00;67937.56;4990312;28;20125;-79
2022/11/16 03:26:50;;;;;;;32.00;23.40;;;;;;;;;;4988906;28;20122;-80
2022/11/16 03:29:48;;;;;;;29.20;21.02;;;;;;;10.50;100.00;67931.81;4989912;28;20050;-79
2022/11/16 03:32:18;;;;;;;29.17;23.95;;;;;;;;;;4988677;28;20042;-81
2022/11/16 03:34:49;;;;;;;33.38;22.85;;;;;;;;;;5002734;28;20084;-80
2022/11/16 03:37:15;;;;;;;30.80;23.67;;;;;;;10.51;100.00;67940.97;5004119;28;20042;-81
2022/11/16 03:39:43;;;;;;;34.28;23.58;;;;;;;10.51;100.00;67936.19;5002900;28;20045;-79
2022/11/16 03:42:12;;;;;;;35.22;23.50;;;;;;;10.47;100.00;67928.44;4992196;28;20473;-79
2022/11/16 03:44:39;;;;;;;32.70;23.73;;;;;;;10.47;100.00;67931.66;4991208;28;20061;-79
2022/11/16 03:47:05;;;;;;;37.38;24.45;;;;;;;;;;4988853;28;20042;-79
2022/11/16 03:49:30;;;;;;;30.45;21.20;;;;;;;10.46;100.00;67935.28;4991112;28;20053;-79
2022/11/16 03:51:56;;;;;;;37.22;25.10;;;;;;;10.47;100.00;67937.00;4986845;28;20125;-79
2022/11/16 03:54:22;;;;;;;31.13;19.92;;;;;;;10.46;100.00;67935.28;4989593;28;20430;-79
2022/11/16 03:56:47;;;;;;;36.05;24.63;;;;;;;10.44;100.00;67928.25;4991086;28;20653;-79
2022/11/16 03:59:13;;;;;;;36.58;25.42;;;;;;;10.45;100.00;67929.41;4990333;28;20070;-79
2022/11/16 04:01:38;;;;;;;39.92;25.15;;;;;;;10.43;100.00;67926.56;4991770;28;20092;-79
2022/11/16 04:04:04;;;;;;;36.42;24.23;;;;;;;10.41;100.00;67924.84;4996535;28;20104;-81
2022/11/16 04:25:45;;;;;;;44.58;29.30;;;;;;;;;;5000288;28;20092;-81
2022/11/16 04:28:15;;;;;;;45.65;30.13;;;;;;;;;;4997087;28;20049;-80
2022/11/16 04:39:02;;;;;;;45.67;29.75;;;;;;;10.39;100.00;67927.91;5000645;28;20052;-80
2022/11/16 04:44:17;;;;;;;49.55;32.75;;;;;;;10.45;100.00;67934.72;4999772;28;20049;-80
2022/11/16 04:49:26;;;;;;;47.13;30.20;;;;;;;;;;4993072;28;20113;-79
2022/11/16 04:51:51;;;;;;;47.13;31.00;;;;;;;10.48;100.00;67932.81;4992404;28;20042;-80
2022/11/16 04:54:17;;;;;;;47.17;29.10;;;;;;;10.50;100.00;67935.06;4994466;28;20069;-81
2022/11/16 04:56:42;;;;;;;46.38;30.05;;;;;;;10.50;100.00;67935.06;4996045;28;20354;-81
2022/11/16 04:59:08;;;;;;;44.83;26.63;;;;;;;10.53;100.00;67937.91;4997346;28;20669;-81
2022/11/16 05:04:17;;;;;;;40.90;27.08;;;;;;;10.54;100.00;67944.94;4989601;28;20049;-81
2022/11/16 05:06:42;;;;;;;46.67;28.63;;;;;;;10.56;100.00;67946.63;4989286;28;20034;-80
2022/11/16 05:09:07;;;;;;;42.85;27.15;;;;;;;10.57;100.00;67940.34;4991298;28;20038;-81
2022/11/16 05:11:33;;;;;;;42.15;29.58;;;;;;;10.62;100.00;67948.13;4992119;28;20509;-81
2022/11/16 05:13:58;;;;;;;41.72;26.80;;;;;;;10.63;100.00;67948.69;5006295;28;20042;-80
2022/11/16 05:16:23;;;;;;;42.28;25.83;;;;;;;10.66;100.00;67957.41;4989368;28;20073;-81
2022/11/16 05:20:59;;;;;;;45.00;30.65;;;;;;;10.66;100.00;67952.66;4991940;28;20041;-80
2022/11/16 05:21:34;;;;;;;43.60;30.17;;;;;;;10.66;100.00;67952.09;4990348;28;20045;-79
2022/11/16 05:26:43;;;;;;;40.35;29.67;;;;;;;10.70;100.00;67962.50;4990451;28;20112;-79
2022/11/16 05:29:08;;;;;;;44.13;29.70;;;;;;;10.71;100.00;67957.78;4993073;28;20043;-79
2022/11/16 05:31:34;;;;;;;41.03;28.52;;;;;;;10.74;100.00;67961.16;4990831;28;20092;-79
2022/11/16 05:33:59;;;;;;;40.42;27.08;;;;;;;10.76;100.00;67963.44;4992287;28;20035;-80
2022/11/16 05:36:24;;;;;;;41.22;28.13;;;;;;;;;;4992119;28;20099;-80
2022/11/16 05:38:50;;;;;;;42.20;29.08;;;;;;;10.80;100.00;67973.31;4990725;28;20046;-79
2022/11/16 05:41:15;;;;;;;43.63;32.85;;;;;;;;;;4990023;28;20113;-79
2022/11/16 05:43:40;;;;;;;37.47;26.38;;;;;;;;;;4989418;28;20133;-79
2022/11/16 05:46:05;;;;;;;38.15;28.02;;;;;;;10.89;100.00;67982.94;4989829;28;20046;-79
2022/11/16 05:48:31;;;;;;;33.30;23.55;;;;;;;10.90;100.00;67978.75;4989648;28;20112;-79
2022/11/16 05:50:58;;;;;;;22.63;16.83;;;;;;;10.89;100.00;67983.50;4991022;28;20565;-80
2022/11/16 05:53:23;;;;;;;23.73;18.65;;;;;;;10.89;100.00;67977.63;4989056;28;20465;-80
2022/11/16 05:55:48;;;;;;;31.73;23.80;;;;;;;10.90;100.00;67979.31;4990032;28;20038;-80
2022/11/16 05:58:14;;;;;;;34.25;24.35;;;;;;;;;;4989346;28;20601;-80
2022/11/16 06:00:39;;;;;;;37.28;27.48;;;;;;;10.89;100.00;67978.19;4990682;28;20054;-79
2022/11/16 06:03:04;;;;;;;35.60;27.83;;;;;;;10.91;100.00;67985.22;4991513;28;20064;-80
2022/11/16 06:05:30;;;;;;;37.50;28.42;;;;;;;10.91;100.00;67985.78;4990695;28;20130;-79
2022/11/16 06:07:55;;;;;;;38.58;27.83;;;;;;;10.88;100.00;67976.50;4990079;28;20467;-79
2022/11/16 06:10:20;;;;;;;36.25;25.38;;;;;;;10.86;100.00;67980.09;4985032;28;20050;-79
2022/11/16 06:12:46;;;;;;;26.38;20.55;;;;;;;10.83;100.00;67976.72;4986280;28;20042;-79
2022/11/16 06:15:11;;;;;;;32.85;21.02;;;;;;;10.79;100.00;67972.75;4982067;28;20501;-79
2022/11/16 06:17:36;;;;;;;30.60;20.00;;;;;;;10.79;100.00;67964.19;4980782;28;20494;-79
2022/11/16 06:20:02;;;;;;;28.58;18.30;;;;;;;10.77;100.00;67965.13;4989035;28;20038;-79
2022/11/16 06:22:28;;;;;;;30.88;19.42;;;;;;;10.76;100.00;67969.34;5000746;28;20053;-79
2022/11/16 06:24:53;;;;;;;25.88;17.58;;;;;;;;;;4988331;28;20117;-79
2022/11/16 06:27:18;;;;;;;22.77;15.48;;;;;;;;;;4988565;28;20074;-80
2022/11/16 06:29:43;;;;;;;23.05;16.15;;;;;;;10.72;100.00;67964.78;4989137;28;20053;-79
2022/11/16 06:32:09;;;;;;;25.50;16.65;;;;;;;10.72;100.00;67958.91;4988470;28;20042;-79
2022/11/16 06:34:34;;;;;;;24.58;15.15;;;;;;;10.69;100.00;67960.81;4988777;28;20042;-79
2022/11/16 06:36:59;;;;;;;20.83;13.68;;;;;;;10.69;100.00;67956.06;4996585;28;20102;-79
2022/11/16 06:39:25;;;;;;;21.85;14.50;;;;;;;10.68;100.00;67954.38;5027052;28;20426;-79
2022/11/16 06:41:50;;;;;;;20.08;15.45;;;;;;;10.66;100.00;67952.66;5012530;28;20038;-79
2022/11/16 06:44:15;;;;;;;20.23;14.52;;;;;;;;;;5017331;28;20054;-79
2022/11/16 06:46:40;;;;;;;22.63;15.30;;;;;;;10.65;100.00;67950.97;4991739;28;20093;-79
2022/11/16 06:49:06;;;;;;;19.52;13.68;;;;;;;;;;4992205;28;20046;-79
2022/11/16 06:51:31;;;;;;;22.75;16.08;;;;;;;10.63;100.00;67949.25;4992018;28;20053;-79
2022/11/16 06:53:56;;;;;;;21.35;13.65;;;;;;;10.61;100.00;67952.28;4988241;28;20042;-79
2022/11/16 06:56:22;;;;;;;19.48;13.65;;;;;;;10.61;100.00;67947.53;4991151;28;20413;-80
2022/11/16 06:58:47;;;;;;;20.95;13.73;;;;;;;;;;5004427;28;20053;-80
2022/11/16 07:01:12;;;;;;;23.35;15.02;;;;;;;10.58;100.00;67943.56;4992125;28;20038;-79
2022/11/16 07:03:38;;;;;;;20.30;15.60;;;;;;;;;;4992118;28;20038;-80
2022/11/16 07:06:11;;;;;;;23.08;16.85;;;;;;;10.57;100.00;67947.75;4991844;28;20058;-79
2022/11/16 07:08:37;;;;;;;20.67;15.45;;;;;;;10.55;100.00;67946.06;4990759;28;20463;-79
2022/11/16 07:11:04;;;;;;;21.90;15.07;;;;;;;;;;4993459;28;20030;-79
2022/11/16 07:13:34;;;;;;;22.77;16.45;;;;;;;10.54;100.00;67939.59;4991527;28;20060;-79
2022/11/16 07:16:05;;;;;;;22.10;13.77;;;;;;;10.56;100.00;67946.63;4989941;28;20427;-79
2022/11/16 07:18:37;;;;;;;18.33;14.15;;;;;;;;;;5000077;28;20060;-79
2022/11/16 07:21:11;;;;;;;21.98;17.17;;;;;;;10.54;100.00;67936.38;4989303;28;20042;-80
2022/11/16 07:23:37;;;;;;;20.60;15.90;;;;;;;;;;4986577;28;20494;-79
2022/11/16 07:26:04;;;;;;;17.58;11.45;;;;;;;10.50;100.00;67935.06;4991735;28;20046;-79
2022/11/16 07:28:30;;;;;;;17.95;11.88;;;;;;;10.49;100.00;67933.38;4988154;28;20046;-79
2022/11/16 07:31:04;;;;;;;18.45;11.75;;;;;;;10.47;100.00;67937.00;4995054;28;20044;-79
2022/11/16 07:33:29;;;;;;;14.80;11.13;;;;;;;10.45;100.00;67934.16;5005129;28;20046;-79
2022/11/16 07:36:03;;;;;;;14.50;10.23;;;;;;;10.41;100.00;67921.63;4992360;28;20415;-79
2022/11/16 07:38:29;;;;;;;17.02;11.38;;;;;;;;;;4991056;28;20042;-79
2022/11/16 07:41:02;;;;;;;18.35;11.38;;;;;;;10.36;100.00;67925.06;4991088;28;20042;-79
2022/11/16 07:43:30;;;;;;;16.35;10.77;;;;;;;10.35;100.00;67918.59;4991830;28;20042;-79
2022/11/16 07:46:00;;;;;;;15.87;11.10;;;;;;;10.35;100.00;67915.38;4990082;28;20410;-80
2022/11/16 07:48:25;;;;;;;15.27;11.32;;;;;;;10.33;100.00;67921.66;4990236;28;20665;-79
2022/11/16 07:50:51;;;;;;;14.68;9.23;;;;;;;10.34;100.00;67922.22;4990356;28;20116;-80
2022/11/16 07:53:16;;;;;;;15.63;8.90;;;;;;;10.33;100.00;67916.34;4990068;28;20042;-79
2022/11/16 07:55:42;;;;;;;15.48;9.60;;;;;;;10.33;100.00;67915.78;4991890;28;20506;-80
2022/11/16 07:58:07;;;;;;;16.02;8.88;;;;;;;10.33;100.00;67921.09;4998546;28;20035;-80
2022/11/16 08:00:32;;;;;;;14.25;8.10;;;;;;;10.30;100.00;67918.28;4991956;28;20042;-80
2022/11/16 08:02:58;;;;;;;13.63;7.28;;;;;;;10.27;100.00;67906.88;4989130;28;20042;-79
2022/11/16 08:05:23;;;;;;;13.82;7.70;;;;;;;10.26;100.00;67908.38;4988672;28;20062;-79
2022/11/16 08:07:48;;;;;;;11.65;6.47;;;;;;;10.25;100.00;67906.69;4993959;28;20066;-79
2022/11/16 08:10:14;;;;;;;12.45;6.60;;;;;;;10.27;100.00;67914.28;4989198;28;20035;-79
2022/11/16 08:12:39;;;;;;;10.45;6.20;;;;;;;10.27;100.00;67906.31;4990744;28;20042;-80
2022/11/16 08:15:05;;;;;;;12.80;7.13;;;;;;;;;;4989020;28;20038;-79
2022/11/16 08:17:30;;;;;;;13.25;7.38;;;;;;;10.27;100.00;67914.88;4991101;28;20042;-79
2022/11/16 08:19:55;;;;;;;12.65;7.50;;;;;;;;;;4989523;28;20046;-79
2022/11/16 08:22:21;;;;;;;13.73;7.45;;;;;;;10.31;100.00;67918.84;4990544;28;20070;-80
2022/11/16 08:24:46;;;;;;;12.75;6.63;;;;;;;;;;4990291;28;20050;-80
2022/11/16 08:27:14;;;;;;;11.75;6.72;;;;;;;;;;4988673;28;20069;-80
2022/11/16 08:29:39;;;;;;;12.48;6.95;;;;;;;10.30;100.00;67912.38;4989159;28;20108;-80
2022/11/16 08:32:05;;;;;;;11.63;6.90;;;;;;;10.34;100.00;67916.91;5004045;28;20038;-80
2022/11/16 08:34:30;;;;;;;12.68;7.55;;;;;;;10.34;100.00;67917.47;4989032;28;20203;-80
2022/11/16 08:36:55;;;;;;;10.43;7.57;;;;;;;10.35;100.00;67926.59;4997900;28;20039;-80
2022/11/16 08:39:21;;;;;;;13.85;8.20;;;;;;;10.38;100.00;67919.34;4983704;28;20049;-80
2022/11/16 08:41:46;;;;;;;12.25;7.43;;;;;;;10.37;100.00;67925.63;4987690;28;20158;-80
2022/11/16 08:44:11;;;;;;;12.35;8.32;;;;;;;10.44;100.00;67933.56;4989677;28;20050;-80
2022/11/16 08:46:38;;;;;;;14.57;8.70;;;;;;;10.47;100.00;67937.00;4988667;28;20126;-80
2022/11/16 08:49:03;;;;;;;14.38;7.68;;;;;;;10.50;100.00;67934.50;4989683;28;20517;-80
2022/11/16 08:51:28;;;;;;;11.75;7.30;;;;;;;;;;4988063;28;20046;-80
2022/11/16 08:53:58;;;;;;;13.65;7.63;;;;;;;10.50;100.00;67935.06;4984458;28;20093;-80
2022/11/16 08:56:25;;;;;;;13.68;7.45;;;;;;;;;;4985747;28;20097;-80
2022/11/16 08:58:51;;;;;;;11.35;7.45;;;;;;;;;;4987825;28;20038;-81
2022/11/16 09:01:19;;;;;;;11.55;7.13;;;;;;;10.52;100.00;67936.75;4990493;28;20529;-80
2022/11/16 09:03:44;;;;;;;15.13;7.55;;;;;;;;;;4988553;28;20046;-81
2022/11/16 09:06:11;;;;;;;14.02;8.20;;;;;;;10.53;100.00;67938.47;4984950;28;20399;-80
2022/11/16 09:08:39;;;;;;;13.63;7.28;;;;;;;10.55;100.00;67946.06;4986193;28;20038;-80
2022/11/16 09:11:06;;;;;;;10.13;6.82;;;;;;;10.58;100.00;67948.91;4986603;28;20564;-79
2022/11/16 09:13:32;;;;;;;10.73;6.45;;;;;;;;;;4990232;28;20042;-80
2022/11/16 09:15:59;;;;;;;13.80;7.95;;;;;;;10.65;100.00;67948.31;4988029;28;20569;-79
2022/11/16 09:18:25;;;;;;;11.98;6.35;;;;;;;10.66;100.00;67949.44;4990141;28;20058;-80
2022/11/16 09:20:50;;;;;;;12.05;6.82;;;;;;;10.60;100.00;67951.16;5003573;28;20038;-80
2022/11/16 09:23:16;;;;;;;11.48;6.72;;;;;;;10.57;100.00;67947.75;4988569;28;20064;-80
2022/11/16 09:25:44;;;;;;;11.43;6.10;;;;;;;;;;4988269;28;20054;-80
2022/11/16 09:28:10;;;;;;;12.05;6.90;;;;;;;10.57;100.00;67940.34;4987152;28;20051;-80
2022/11/16 09:30:35;;;;;;;12.68;7.40;;;;;;;;;;4990058;28;20486;-80
2022/11/16 09:33:00;;;;;;;13.05;7.93;;;;;;;10.63;100.00;67948.69;4988871;28;20592;-80
2022/11/16 09:35:25;;;;;;;14.70;7.68;;;;;;;10.62;100.00;67948.13;4989822;28;20068;-80
2022/11/16 09:37:51;;;;;;;11.90;6.55;;;;;;;10.59;100.00;67945.28;4989995;28;20035;-80
2022/11/16 09:40:16;;;;;;;11.60;7.40;;;;;;;;;;4990451;28;20041;-80
2022/11/16 09:42:58;;;;;;;11.45;7.10;;;;;;;;;;4989789;28;20050;-80
2022/11/16 09:45:30;;;;;;;12.57;7.22;;;;;;;;;;4986390;28;20061;-80
2022/11/16 09:47:58;;;;;;;12.13;7.38;;;;;;;;;;4989750;28;20120;-80
2022/11/16 09:50:26;;;;;;;13.82;8.65;;;;;;;;;;4990086;28;20122;-80
2022/11/16 09:52:54;;;;;;;10.02;6.57;;;;;;;;;;4990147;28;20426;-80
2022/11/16 09:55:33;;;;;;;10.52;6.85;;;;;;;10.66;100.00;67952.09;4989612;28;20532;-80
2022/11/16 09:58:00;;;;;;;9.93;6.07;;;;;;;;;;4989563;28;20863;-80
2022/11/16 10:00:29;;;;;;;11.90;6.80;;;;;;;10.75;100.00;67962.28;4993862;28;20068;-80
2022/11/16 10:03:04;;;;;;;10.80;5.20;;;;;;;;;;4991228;28;20038;-80
2022/11/16 10:06:14;;;;;;;11.20;5.68;;;;;;;10.84;100.00;67977.84;4994170;28;20042;-80
2022/11/16 10:08:46;;;;;;;10.07;4.47;;;;;;;;;;4988993;28;20035;-80
2022/11/16 10:11:30;;;;;;;8.73;3.83;;;;;;;10.80;100.00;67973.31;4976298;28;20050;-80
2022/11/16 10:14:12;;;;;;;9.55;3.50;;;;;;;10.81;100.00;67975.00;4996590;28;20039;-80
2022/11/16 10:16:46;;;;;;;9.63;3.15;;;;;;;10.87;100.00;67975.91;4999023;28;20629;-80
2022/11/16 10:19:33;;;;;;;13.07;3.58;;;;;;;;;;4994547;28;20342;-80
2022/11/16 10:22:33;;;;;;;12.25;3.58;;;;;;;10.95;100.00;67990.31;4996727;28;20088;-80
2022/11/16 10:25:00;;;;;;;13.07;3.42;;;;;;;;;;4989449;28;20524;-80
2022/11/16 10:27:46;;;;;;;14.05;4.85;;;;;;;10.91;100.00;67980.47;4992389;28;20054;-80
2022/11/16 10:30:16;;;;;;;12.35;3.92;;;;;;;;;;4989721;28;20039;-80
2022/11/16 10:32:59;;;;;;;11.30;3.17;;;;;;;11.05;100.00;67995.78;4992295;28;20042;-80
2022/11/16 10:35:26;;;;;;;11.65;2.50;;;;;;;;;;4990664;28;20042;-80
2022/11/16 10:37:52;;;;;;;9.98;3.00;;;;;;;11.10;100.00;68006.22;4991694;28;20670;-79
2022/11/16 10:40:20;;;;;;;8.45;2.35;;;;;;;;;;4991323;28;20041;-80
2022/11/16 10:42:51;;;;;;;11.57;2.83;;;;;;;11.17;100.00;68009.41;4987856;28;20074;-80
2022/11/16 10:45:27;;;;;;;15.73;2.72;;;;;;;;;;4986646;28;20289;-80
2022/11/16 10:47:59;;;;;;;10.23;2.78;;;;;;;11.29;100.00;68023.03;4991503;28;20537;-80
2022/11/16 10:50:36;;;;;;;8.82;2.72;;;;;;;11.31;100.00;68024.75;4991785;28;20046;-80
2022/11/16 10:53:02;;;;;;;9.30;2.72;;;;;;;11.35;100.00;68029.28;4989512;28;20039;-80
2022/11/16 10:55:28;;;;;;;11.27;2.63;;;;;;;11.35;100.00;68028.72;4990033;28;20054;-80
2022/11/16 10:57:59;;;;;;;11.57;3.20;;;;;;;11.40;100.00;68034.38;4991207;28;20046;-80
2022/11/16 11:00:36;;;;;;;10.82;3.00;;;;;;;;;;4991775;28;20034;-80
2022/11/16 11:03:02;;;;;;;10.82;2.80;;;;;;;;;;4990735;28;20042;-81
2022/11/16 11:05:28;;;;;;;10.65;2.95;;;;;;;;;;4990407;28;20050;-80
2022/11/16 11:08:11;;;;;;;9.63;2.33;;;;;;;11.64;100.00;68058.97;4994348;28;20050;-83
2022/11/16 11:10:40;;;;;;;12.32;2.67;;;;;;;11.58;99.88;68060.16;4991227;28;20038;-83
2022/11/16 11:13:19;;;;;;;11.10;2.97;;;;;;;11.63;100.00;68065.84;4990660;28;20038;-82
2022/11/16 11:15:46;;;;;;;7.28;2.15;;;;;;;11.64;100.00;68066.41;4990187;28;20047;-80
2022/11/16 11:18:25;;;;;;;9.70;2.40;;;;;;;11.67;99.86;68064.47;4990371;28;20038;-80
2022/11/16 11:21:10;;;;;;;8.82;2.15;;;;;;;;;;4991614;28;20341;-80
2022/11/16 11:23:41;;;;;;;10.40;2.88;;;;;;;11.73;98.36;68077.19;4981845;28;20042;-80
2022/11/16 11:26:24;;;;;;;6.80;2.00;;;;;;;11.61;98.36;68066.22;4990329;28;20046;-80
2022/11/16 11:28:50;;;;;;;8.20;2.15;;;;;;;11.53;98.33;68047.03;4987296;28;20039;-80
2022/11/16 11:31:37;;;;;;;9.82;2.67;;;;;;;11.53;99.32;68049.13;4991715;28;20495;-80
2022/11/16 11:34:18;;;;;;;8.60;2.42;;;;;;;11.52;99.02;68048.56;4989798;28;20503;-80
2022/11/16 11:36:47;;;;;;;9.35;3.08;;;;;;;;;;4981392;28;20045;-80
2022/11/16 11:39:12;;;;;;;7.32;2.47;;;;;;;;;;4988542;28;20042;-82
2022/11/16 11:41:58;;;;;;;12.27;3.13;;;;;;;11.44;100.00;68036.81;5003215;28;20105;-82
2022/11/16 11:44:30;;;;;;;13.38;3.55;;;;;;;11.50;100.00;68045.72;4988928;28;20281;-82
2022/11/16 11:47:10;;;;;;;11.95;4.28;;;;;;;11.69;100.00;68072.66;5007453;28;20053;-82
2022/11/16 11:49:48;;;;;;;10.43;3.40;;;;;;;12.02;100.00;68103.69;4971918;28;20047;-82
2022/11/16 11:52:18;;;;;;;9.20;3.10;;;;;;;;;;4969030;28;20099;-82
2022/11/16 11:54:46;;;;;;;7.22;2.25;;;;;;;;;;4987321;28;20316;-82
2022/11/16 11:57:19;;;;;;;5.93;2.30;;;;;;;11.96;95.04;68102.19;4991920;28;20505;-82
2022/11/16 11:59:46;;;;;;;8.52;2.47;;;;;;;12.09;96.31;68111.09;4992742;28;20292;-82
2022/11/16 12:02:51;;;;;;;5.82;2.33;;;;;;;12.07;93.46;68108.81;4991064;28;20774;-82
2022/11/16 12:05:41;;;;;;;9.57;2.25;;;;;;;12.16;93.35;68119.03;4970318;28;20042;-82
2022/11/16 12:08:16;;;;;;;8.57;2.20;;;;;;;12.27;92.27;68130.97;4990725;28;20054;-82
2022/11/16 12:10:48;;;;;;;6.07;1.80;;;;;;;;;;4990485;28;20069;-82
2022/11/16 12:13:44;;;;;;;7.55;2.50;;;;;;;12.47;93.72;68153.13;4990558;28;20409;-82
2022/11/16 12:16:12;;;;;;;6.80;2.40;;;;;;;;;;4986200;28;20228;-82
2022/11/16 12:18:51;;;;;;;12.93;2.50;;;;;;;12.64;91.70;68172.44;4990447;28;20534;-82
2022/11/16 12:21:31;;;;;;;6.85;1.88;;;;;;;12.63;90.89;68171.31;4997437;28;20041;-82
2022/11/16 12:23:59;;;;;;;5.28;1.45;;;;;;;;;;4986906;28;20038;-82
2022/11/16 12:26:54;;;;;;;5.38;1.65;;;;;;;12.67;87.97;68175.28;4988238;28;20042;-82
2022/11/16 12:29:26;;;;;;;6.47;1.60;;;;;;;12.63;88.61;68177.22;4987816;28;20046;-82
2022/11/16 12:31:51;;;;;;;5.65;1.60;;;;;;;12.84;89.84;68194.59;4985416;28;20129;-82
2022/11/16 12:35:12;;;;;;;7.32;1.65;;;;;;;12.77;88.71;68195.22;4988265;28;20129;-82
2022/11/16 12:37:51;;;;;;;7.53;1.77;;;;;;;12.77;89.99;68186.66;4981063;28;20066;-82
2022/11/16 12:40:49;;;;;;;4.70;1.40;;;;;;;12.92;89.99;68203.13;4972035;28;20117;-82
2022/11/16 12:43:17;;;;;;;5.03;1.52;;;;;;;13.00;88.06;68209.56;4964306;28;20700;-80
2022/11/16 12:46:04;;;;;;;6.28;2.20;;;;;;;12.96;88.29;68208.25;4986733;28;20050;-80
2022/11/16 12:48:30;;;;;;;7.97;1.95;;;;;;;;;;4988704;28;20064;-80
2022/11/16 12:50:55;;;;;;;4.33;1.50;;;;;;;13.01;87.08;68213.38;4990745;28;20113;-80
2022/11/16 12:53:50;;;;;;;9.88;2.40;;;;;;;13.04;86.03;68216.78;4983921;28;21050;-80